Time;durP1;ratioP1;P1;durP2;ratioP2;P2;SDS_P1;SDS_P2;PMS_P1;PMS_P2;Temp;Humidity;BMP_temperature;BMP_pressure;BME280_temperature;BME280_humidity;BME280_pressure;Samples;Min_cycle;Max_cycle;Signal;HPM_P1;HPM_P2
2022/12/02 00:01:36;;;;;;;;;;;;;;;;;;7368154;19;756;-68
2022/12/02 00:04:05;;;;;;;;;;;;;;;;;;7367610;19;1271;-67
2022/12/02 00:06:33;;;;;;;;;;;;;;;;;;7369994;19;1915;-70
2022/12/02 00:09:01;;;;;;;;;;;;;;;;;;7366335;19;800;-67
2022/12/02 00:11:29;;;;;;;;;;;;;;;;;;7367242;19;794;-69
2022/12/02 00:13:57;;;;;;;;;;;;;;;;;;7368277;19;1846;-69
2022/12/02 00:16:25;;;;;;;;;;;;;;;;;;7368500;19;805;-68
2022/12/02 00:18:53;;;;;;;;;;;;;;;;;;7367287;19;826;-67
2022/12/02 00:21:22;;;;;;;;;;;;;;;;;;7368656;19;820;-68
2022/12/02 00:23:50;;;;;;;;;;;;;;;;;;7369105;19;826;-68
2022/12/02 00:26:18;;;;;;;;;;;;;;;;;;7375572;19;1250;-69
2022/12/02 00:28:46;;;;;;;;;;;;;;;;;;7380670;19;866;-69
2022/12/02 00:31:14;;;;;;;;;;;;;;;;;;7379960;19;879;-69
2022/12/02 00:33:42;;;;;;;;;;;;;;;;;;7377187;19;815;-69
2022/12/02 00:36:10;;;;;;;;;;;;;;;;;;7375366;19;1845;-68
2022/12/02 00:38:39;;;;;;;;;;;;;;;;;;7373664;19;1135;-69
2022/12/02 00:41:07;;;;;;;;;;;;;;;;;;7367623;19;876;-69
2022/12/02 00:48:57;;;;;;;;;;;;;;;;;;7365197;19;1007;-68
2022/12/02 00:51:26;;;;;;;;;;;;;;;;;;7365444;19;1473;-69
2022/12/02 00:53:54;;;;;;;;;;;;;;;;;;7365879;19;1352;-68
2022/12/02 00:56:22;;;;;;;;;;;;;;;;;;7367844;19;1842;-68
2022/12/02 00:58:51;;;;;;;;;;;;;;;;;;7372720;19;799;-68
2022/12/02 01:01:19;;;;;;;;;;;;;;;;;;7372567;19;826;-68
2022/12/02 01:03:47;;;;;;;;;;;;;;;;;;7374219;19;1753;-69
2022/12/02 01:06:16;;;;;;;;;;;;;;;;;;7371157;19;1530;-69
2022/12/02 01:08:44;;;;;;;;;;;;;;;;;;7372802;19;893;-68
2022/12/02 01:11:12;;;;;;;;;;;;;;;;;;7372145;19;868;-69
2022/12/02 01:13:42;;;;;;;;;;;;;;;;;;7374351;19;1864;-68
2022/12/02 01:16:10;;;;;;;;;;;;;;;;;;7369978;19;1853;-69
2022/12/02 01:18:38;;;;;;;;;;;;;;;;;;7370193;19;872;-68
2022/12/02 01:21:06;;;;;;;;;;;;;;;;;;7369642;19;876;-68
2022/12/02 01:23:35;;;;;;;;;;;;;;;;;;7371055;19;876;-69
2022/12/02 01:26:03;;;;;;;;;;;;;;;;;;7368963;19;1382;-69
2022/12/02 01:28:31;;;;;;;;;;;;;;;;;;7369708;19;878;-68
2022/12/02 01:30:59;;;;;;;;;;;;;;;;;;7371053;19;835;-69
2022/12/02 01:33:27;;;;;;;;;;;;;;;;;;7371320;19;766;-69
2022/12/02 01:35:55;;;;;;;;;;;;;;;;;;7370122;19;2204;-69
2022/12/02 01:38:23;;;;;;;;;;;;;;;;;;7369542;19;861;-69
2022/12/02 01:40:53;;;;;;;;;;;;;;;;;;7372036;19;866;-69
2022/12/02 01:43:21;;;;;;;;;;;;;;;;;;7371090;19;830;-69
2022/12/02 01:45:50;;;;;;;;;;;;;;;;;;7370031;19;1310;-69
2022/12/02 01:48:18;;;;;;;;;;;;;;;;;;7371386;19;840;-68
2022/12/02 01:50:46;;;;;;;;;;;;;;;;;;7373324;19;866;-69
2022/12/02 01:53:14;;;;;;;;;;;;;;;;;;7371482;19;888;-69
2022/12/02 01:55:42;;;;;;;;;;;;;;;;;;7370904;19;1846;-69
2022/12/02 01:58:12;;;;;;;;;;;;;;;;;;7372282;19;694;-69
2022/12/02 02:00:40;;;;;;;;;;;;;;;;;;7372896;19;785;-69
2022/12/02 02:03:08;;;;;;;;;;;;;;;;;;7372259;19;800;-69
2022/12/02 02:05:36;;;;;;;;;;;;;;;;;;7371821;19;1861;-69
2022/12/02 02:08:05;;;;;;;;;;;;;;;;;;7370448;19;789;-69
2022/12/02 02:10:33;;;;;;;;;;;;;;;;;;7371304;19;1902;-69
2022/12/02 02:13:01;;;;;;;;;;;;;;;;;;7370223;19;787;-69
2022/12/02 02:15:29;;;;;;;;;;;;;;;;;;7369919;19;1850;-69
2022/12/02 02:17:57;;;;;;;;;;;;;;;;;;7371035;19;1098;-69
2022/12/02 02:20:25;;;;;;;;;;;;;;;;;;7371949;19;854;-69
2022/12/02 02:22:53;;;;;;;;;;;;;;;;;;7369045;19;867;-69
2022/12/02 02:25:23;;;;;;;;;;;;;;;;;;7367424;19;1346;-69
2022/12/02 02:27:51;;;;;;;;;;;;;;;;;;7370333;19;851;-68
2022/12/02 02:30:19;;;;;;;;;;;;;;;;;;7370027;19;787;-69
2022/12/02 02:32:48;;;;;;;;;;;;;;;;;;7368960;19;807;-69
2022/12/02 02:35:16;;;;;;;;;;;;;;;;;;7367328;19;1846;-69
2022/12/02 02:37:44;;;;;;;;;;;;;;;;;;7373089;19;2162;-69
2022/12/02 02:40:14;;;;;;;;;;;;;;;;;;7368891;19;863;-69
2022/12/02 02:42:43;;;;;;;;;;;;;;;;;;7368851;19;757;-68
2022/12/02 02:45:11;;;;;;;;;;;;;;;;;;7367047;19;1299;-68
2022/12/02 02:47:40;;;;;;;;;;;;;;;;;;7367551;19;777;-69
2022/12/02 02:50:08;;;;;;;;;;;;;;;;;;7369713;19;830;-67
2022/12/02 02:52:36;;;;;;;;;;;;;;;;;;7368385;19;787;-68
2022/12/02 02:55:04;;;;;;;;;;;;;;;;;;7367154;19;1845;-69
2022/12/02 02:57:33;;;;;;;;;;;;;;;;;;7368486;19;862;-68
2022/12/02 03:00:01;;;;;;;;;;;;;;;;;;7368251;19;804;-68
2022/12/02 03:02:30;;;;;;;;;;;;;;;;;;7368707;19;843;-68
2022/12/02 03:04:58;;;;;;;;;;;;;;;;;;7366697;19;1299;-67
2022/12/02 03:07:26;;;;;;;;;;;;;;;;;;7372292;19;1903;-68
2022/12/02 03:09:54;;;;;;;;;;;;;;;;;;7367118;19;848;-67
2022/12/02 03:12:22;;;;;;;;;;;;;;;;;;7368568;19;948;-68
2022/12/02 03:14:50;;;;;;;;;;;;;;;;;;7367544;19;1847;-68
2022/12/02 03:17:19;;;;;;;;;;;;;;;;;;7367591;19;811;-68
2022/12/02 03:19:47;;;;;;;;;;;;;;;;;;7367405;19;1848;-67
2022/12/02 03:22:15;;;;;;;;;;;;;;;;;;7368551;19;819;-68
2022/12/02 03:24:44;;;;;;;;;;;;;;;;;;7368118;19;1263;-68
2022/12/02 03:27:12;;;;;;;;;;;;;;;;;;7370323;19;811;-68
2022/12/02 03:29:41;;;;;;;;;;;;;;;;;;7367980;19;858;-67
2022/12/02 03:32:10;;;;;;;;;;;;;;;;;;7370572;19;768;-68
2022/12/02 03:34:38;;;;;;;;;;;;;;;;;;7368841;19;1209;-67
2022/12/02 03:37:06;;;;;;;;;;;;;;;;;;7370590;19;1895;-68
2022/12/02 03:39:34;;;;;;;;;;;;;;;;;;7367550;19;799;-68
2022/12/02 03:42:02;;;;;;;;;;;;;;;;;;7370134;19;885;-69
2022/12/02 03:44:31;;;;;;;;;;;;;;;;;;7367206;19;1290;-69
2022/12/02 03:46:59;;;;;;;;;;;;;;;;;;7369878;19;783;-68
2022/12/02 03:49:27;;;;;;;;;;;;;;;;;;7368524;19;772;-68
2022/12/02 03:51:55;;;;;;;;;;;;;;;;;;7367731;19;823;-68
2022/12/02 03:54:23;;;;;;;;;;;;;;;;;;7367716;19;1240;-67
2022/12/02 03:56:51;;;;;;;;;;;;;;;;;;7364084;19;1856;-68
2022/12/02 03:59:20;;;;;;;;;;;;;;;;;;7367758;19;783;-68
2022/12/02 04:01:48;;;;;;;;;;;;;;;;;;7367502;19;824;-68
2022/12/02 04:04:16;;;;;;;;;;;;;;;;;;7367665;19;1306;-68
2022/12/02 04:06:44;;;;;;;;;;;;;;;;;;7370586;19;1839;-68
2022/12/02 04:09:12;;;;;;;;;;;;;;;;;;7367976;19;831;-68
2022/12/02 04:11:40;;;;;;;;;;;;;;;;;;7368101;19;809;-69
2022/12/02 04:14:08;;;;;;;;;;;;;;;;;;7368214;19;1709;-68
2022/12/02 04:16:37;;;;;;;;;;;;;;;;;;7366780;19;1834;-68
2022/12/02 04:19:08;;;;;;;;;;;;;;;;;;7367896;19;871;-68
2022/12/02 04:21:36;;;;;;;;;;;;;;;;;;7367992;19;866;-68
2022/12/02 04:24:04;;;;;;;;;;;;;;;;;;7368409;19;1433;-68
2022/12/02 04:26:32;;;;;;;;;;;;;;;;;;7370219;19;823;-68
2022/12/02 04:29:00;;;;;;;;;;;;;;;;;;7369166;19;820;-68
2022/12/02 04:31:29;;;;;;;;;;;;;;;;;;7368835;19;787;-68
2022/12/02 04:33:57;;;;;;;;;;;;;;;;;;7368660;19;1330;-68
2022/12/02 04:36:25;;;;;;;;;;;;;;;;;;7368358;19;1867;-68
2022/12/02 04:38:53;;;;;;;;;;;;;;;;;;7367484;19;796;-68
2022/12/02 04:41:21;;;;;;;;;;;;;;;;;;7368420;19;905;-68
2022/12/02 04:43:49;;;;;;;;;;;;;;;;;;7370208;19;2281;-68
2022/12/02 04:46:18;;;;;;;;;;;;;;;;;;7370104;19;1646;-69
2022/12/02 04:48:46;;;;;;;;;;;;;;;;;;7365368;19;963;-68
2022/12/02 04:51:14;;;;;;;;;;;;;;;;;;7365691;19;818;-68
2022/12/02 04:53:42;;;;;;;;;;;;;;;;;;7366601;19;870;-67
2022/12/02 04:56:10;;;;;;;;;;;;;;;;;;7361850;19;1876;-68
2022/12/02 04:58:38;;;;;;;;;;;;;;;;;;7366050;19;815;-68
2022/12/02 05:01:06;;;;;;;;;;;;;;;;;;7365224;19;901;-68
2022/12/02 05:03:35;;;;;;;;;;;;;;;;;;7367509;19;862;-68
2022/12/02 05:06:03;;;;;;;;;;;;;;;;;;7366366;19;1979;-69
2022/12/02 05:08:31;;;;;;;;;;;;;;;;;;7365519;19;812;-69
2022/12/02 05:10:59;;;;;;;;;;;;;;;;;;7366368;19;801;-69
2022/12/02 05:13:27;;;;;;;;;;;;;;;;;;7367117;19;879;-68
2022/12/02 05:15:55;;;;;;;;;;;;;;;;;;7363053;19;1841;-69
2022/12/02 05:18:24;;;;;;;;;;;;;;;;;;7366065;19;847;-68
2022/12/02 05:20:52;;;;;;;;;;;;;;;;;;7366042;19;832;-68
2022/12/02 05:23:20;;;;;;;;;;;;;;;;;;7366397;19;807;-68
2022/12/02 05:25:48;;;;;;;;;;;;;;;;;;7363621;19;1274;-69
2022/12/02 05:28:16;;;;;;;;;;;;;;;;;;7365860;19;796;-68
2022/12/02 05:30:44;;;;;;;;;;;;;;;;;;7366326;19;827;-69
2022/12/02 05:33:12;;;;;;;;;;;;;;;;;;7366285;19;832;-69
2022/12/02 05:35:41;;;;;;;;;;;;;;;;;;7365302;19;2151;-69
2022/12/02 05:38:09;;;;;;;;;;;;;;;;;;7365450;19;880;-68
2022/12/02 05:40:37;;;;;;;;;;;;;;;;;;7364032;19;866;-69
2022/12/02 05:43:05;;;;;;;;;;;;;;;;;;7369799;19;1020;-68
2022/12/02 05:45:33;;;;;;;;;;;;;;;;;;7370610;19;1326;-68
2022/12/02 05:48:01;;;;;;;;;;;;;;;;;;7371796;19;865;-69
2022/12/02 05:50:30;;;;;;;;;;;;;;;;;;7371602;19;915;-68
2022/12/02 05:52:58;;;;;;;;;;;;;;;;;;7373176;19;878;-68
2022/12/02 05:55:26;;;;;;;;;;;;;;;;;;7371572;19;1261;-68
2022/12/02 05:57:55;;;;;;;;;;;;;;;;;;7368659;19;1853;-68
2022/12/02 06:00:23;;;;;;;;;;;;;;;;;;7371763;19;912;-68
2022/12/02 06:02:51;;;;;;;;;;;;;;;;;;7371653;19;876;-68
2022/12/02 06:05:19;;;;;;;;;;;;;;;;;;7371342;19;1852;-68
2022/12/02 06:07:48;;;;;;;;;;;;;;;;;;7369608;19;1075;-68
2022/12/02 06:10:17;;;;;;;;;;;;;;;;;;7371357;19;815;-68
2022/12/02 06:12:45;;;;;;;;;;;;;;;;;;7371618;19;895;-69
2022/12/02 06:15:13;;;;;;;;;;;;;;;;;;7370194;19;1282;-68
2022/12/02 06:17:41;;;;;;;;;;;;;;;;;;7368599;19;1814;-68
2022/12/02 06:20:09;;;;;;;;;;;;;;;;;;7371372;19;779;-68
2022/12/02 06:22:37;;;;;;;;;;;;;;;;;;7371173;19;861;-69
2022/12/02 06:25:06;;;;;;;;;;;;;;;;;;7370298;19;1460;-69
2022/12/02 06:27:34;;;;;;;;;;;;;;;;;;7370988;19;874;-69
2022/12/02 06:30:02;;;;;;;;;;;;;;;;;;7371014;19;806;-68
2022/12/02 06:32:30;;;;;;;;;;;;;;;;;;7372291;19;1661;-69
2022/12/02 06:34:58;;;;;;;;;;;;;;;;;;7369498;19;1878;-68
2022/12/02 06:37:26;;;;;;;;;;;;;;;;;;7367921;19;1841;-69
2022/12/02 06:39:55;;;;;;;;;;;;;;;;;;7368877;19;855;-68
2022/12/02 06:42:23;;;;;;;;;;;;;;;;;;7372982;19;1902;-69
2022/12/02 06:45:06;;;;;;;;;;;;;;;;;;7369109;19;1345;-69
2022/12/02 06:47:35;;;;;;;;;;;;;;;;;;7369974;19;858;-69
2022/12/02 06:50:03;;;;;;;;;;;;;;;;;;7370305;19;1023;-69
2022/12/02 06:52:31;;;;;;;;;;;;;;;;;;7371126;19;1766;-68
2022/12/02 06:54:59;;;;;;;;;;;;;;;;;;7366460;19;1341;-68
2022/12/02 06:57:30;;;;;;;;;;;;;;;;;;7368705;19;1856;-69
2022/12/02 06:59:58;;;;;;;;;;;;;;;;;;7369936;19;791;-69
2022/12/02 07:02:26;;;;;;;;;;;;;;;;;;7371729;19;873;-70
2022/12/02 07:04:54;;;;;;;;;;;;;;;;;;7370312;19;1530;-70
2022/12/02 07:07:23;;;;;;;;;;;;;;;;;;7373202;19;760;-69
2022/12/02 07:09:51;;;;;;;;;;;;;;;;;;7371683;19;884;-69
2022/12/02 07:12:19;;;;;;;;;;;;;;;;;;7375272;19;771;-70
2022/12/02 07:14:47;;;;;;;;;;;;;;;;;;7380487;19;1855;-69
2022/12/02 07:17:15;;;;;;;;;;;;;;;;;;7380235;19;1850;-70
2022/12/02 07:19:43;;;;;;;;;;;;;;;;;;7381226;19;857;-68
2022/12/02 07:22:12;;;;;;;;;;;;;;;;;;7378113;19;811;-69
2022/12/02 07:24:40;;;;;;;;;;;;;;;;;;7377166;19;1267;-69
2022/12/02 07:27:08;;;;;;;;;;;;;;;;;;7372499;19;759;-72
2022/12/02 07:29:36;;;;;;;;;;;;;;;;;;7370623;19;858;-69
2022/12/02 07:32:04;;;;;;;;;;;;;;;;;;7371660;19;1895;-68
2022/12/02 07:34:33;;;;;;;;;;;;;;;;;;7369602;19;1358;-68
2022/12/02 07:37:01;;;;;;;;;;;;;;;;;;7373630;19;1860;-68
2022/12/02 07:39:29;;;;;;;;;;;;;;;;;;7370427;19;771;-69
2022/12/02 07:41:57;;;;;;;;;;;;;;;;;;7371120;19;859;-68
2022/12/02 07:44:25;;;;;;;;;;;;;;;;;;7370158;19;1353;-69
2022/12/02 07:46:53;;;;;;;;;;;;;;;;;;7369746;19;854;-69
2022/12/02 07:49:21;;;;;;;;;;;;;;;;;;7370415;19;923;-68
2022/12/02 07:51:50;;;;;;;;;;;;;;;;;;7371601;19;693;-68
2022/12/02 07:54:18;;;;;;;;;;;;;;;;;;7369643;19;1389;-69
2022/12/02 07:56:46;;;;;;;;;;;;;;;;;;7370603;19;1843;-69
2022/12/02 07:59:14;;;;;;;;;;;;;;;;;;7371388;19;802;-68
2022/12/02 08:01:44;;;;;;;;;;;;;;;;;;7369690;19;812;-69
2022/12/02 08:04:12;;;;;;;;;;;;;;;;;;7369252;19;1295;-69
2022/12/02 08:06:40;;;;;;;;;;;;;;;;;;7371676;19;1847;-69
2022/12/02 08:09:08;;;;;;;;;;;;;;;;;;7366320;19;780;-68
2022/12/02 08:11:36;;;;;;;;;;;;;;;;;;7368269;19;797;-69
2022/12/02 08:14:04;;;;;;;;;;;;;;;;;;7370027;19;1263;-68
2022/12/02 08:16:33;;;;;;;;;;;;;;;;;;7367526;19;1838;-69
2022/12/02 08:19:01;;;;;;;;;;;;;;;;;;7367813;19;767;-68
2022/12/02 08:21:31;;;;;;;;;;;;;;;;;;7368062;19;787;-69
2022/12/02 08:23:59;;;;;;;;;;;;;;;;;;7368608;19;1267;-69
2022/12/02 08:26:27;;;;;;;;;;;;;;;;;;7369459;19;807;-68
2022/12/02 08:28:55;;;;;;;;;;;;;;;;;;7365989;19;831;-69
2022/12/02 08:31:23;;;;;;;;;;;;;;;;;;7369033;19;873;-67
2022/12/02 08:33:52;;;;;;;;;;;;;;;;;;7369404;19;793;-68
2022/12/02 08:36:20;;;;;;;;;;;;;;;;;;7371260;19;1886;-69
2022/12/02 08:38:48;;;;;;;;;;;;;;;;;;7366982;19;808;-69
2022/12/02 08:41:16;;;;;;;;;;;;;;;;;;7368294;19;865;-68
2022/12/02 08:43:44;;;;;;;;;;;;;;;;;;7369115;19;816;-68
2022/12/02 08:46:13;;;;;;;;;;;;;;;;;;7365933;19;1279;-69
2022/12/02 08:48:41;;;;;;;;;;;;;;;;;;7368517;19;882;-68
2022/12/02 08:51:09;;;;;;;;;;;;;;;;;;7368573;19;800;-68
2022/12/02 08:53:37;;;;;;;;;;;;;;;;;;7368894;19;832;-68
2022/12/02 08:56:05;;;;;;;;;;;;;;;;;;7366550;19;1316;-68
2022/12/02 08:58:33;;;;;;;;;;;;;;;;;;7366536;19;1851;-68
2022/12/02 09:01:02;;;;;;;;;;;;;;;;;;7370891;19;788;-69
2022/12/02 09:03:30;;;;;;;;;;;;;;;;;;7371571;19;775;-69
2022/12/02 09:05:58;;;;;;;;;;;;;;;;;;7372053;19;1921;-68
2022/12/02 09:08:26;;;;;;;;;;;;;;;;;;7367976;19;772;-69
2022/12/02 09:10:54;;;;;;;;;;;;;;;;;;7372757;19;770;-68
2022/12/02 09:13:22;;;;;;;;;;;;;;;;;;7368707;19;855;-69
2022/12/02 09:15:51;;;;;;;;;;;;;;;;;;7366658;19;1283;-69
2022/12/02 09:18:19;;;;;;;;;;;;;;;;;;7371573;19;1821;-68
2022/12/02 09:20:47;;;;;;;;;;;;;;;;;;7376120;19;848;-69
2022/12/02 09:23:15;;;;;;;;;;;;;;;;;;7372907;19;892;-68
2022/12/02 09:25:43;;;;;;;;;;;;;;;;;;7373187;19;1307;-69
2022/12/02 09:28:11;;;;;;;;;;;;;;;;;;7374200;19;808;-68
2022/12/02 09:30:40;;;;;;;;;;;;;;;;;;7375677;19;815;-68
2022/12/02 09:33:08;;;;;;;;;;;;;;;;;;7374844;19;880;-68
2022/12/02 09:35:36;;;;;;;;;;;;;;;;;;7374104;19;1760;-68
2022/12/02 09:38:04;;;;;;;;;;;;;;;;;;7372690;19;1834;-70
2022/12/02 09:40:32;;;;;;;;;;;;;;;;;;7374746;19;812;-69
2022/12/02 09:43:00;;;;;;;;;;;;;;;;;;7375887;19;785;-69
2022/12/02 09:45:29;;;;;;;;;;;;;;;;;;7375585;19;1338;-69
2022/12/02 09:47:57;;;;;;;;;;;;;;;;;;7375032;19;1759;-69
2022/12/02 09:50:25;;;;;;;;;;;;;;;;;;7376798;19;1822;-69
2022/12/02 09:52:53;;;;;;;;;;;;;;;;;;7375617;19;1762;-68
2022/12/02 09:55:21;;;;;;;;;;;;;;;;;;7377172;19;1833;-69
2022/12/02 09:57:50;;;;;;;;;;;;;;;;;;7375087;19;1846;-67
2022/12/02 10:00:18;;;;;;;;;;;;;;;;;;7373339;19;1891;-70
2022/12/02 10:02:46;;;;;;;;;;;;;;;;;;7377979;19;2190;-71
2022/12/02 10:05:14;;;;;;;;;;;;;;;;;;7377584;19;1919;-70
2022/12/02 10:07:43;;;;;;;;;;;;;;;;;;7373166;19;807;-71
2022/12/02 10:10:12;;;;;;;;;;;;;;;;;;7376008;19;1700;-70
2022/12/02 10:12:40;;;;;;;;;;;;;;;;;;7374446;19;843;-70
2022/12/02 10:15:08;;;;;;;;;;;;;;;;;;7371047;19;1341;-69
2022/12/02 10:17:36;;;;;;;;;;;;;;;;;;7371639;19;1837;-69
2022/12/02 10:20:04;;;;;;;;;;;;;;;;;;7372399;19;871;-71
2022/12/02 10:22:33;;;;;;;;;;;;;;;;;;7376571;19;1675;-69
2022/12/02 10:25:01;;;;;;;;;;;;;;;;;;7370688;19;1297;-69
2022/12/02 10:27:29;;;;;;;;;;;;;;;;;;7371265;19;784;-69
2022/12/02 10:29:57;;;;;;;;;;;;;;;;;;7370870;19;836;-69
2022/12/02 10:32:26;;;;;;;;;;;;;;;;;;7372494;19;792;-69
2022/12/02 10:34:54;;;;;;;;;;;;;;;;;;7373979;19;1977;-70
2022/12/02 10:37:23;;;;;;;;;;;;;;;;;;7372056;19;1858;-69
2022/12/02 10:39:51;;;;;;;;;;;;;;;;;;7374732;19;1511;-67
2022/12/02 10:42:20;;;;;;;;;;;;;;;;;;7374545;19;1719;-68
2022/12/02 10:44:48;;;;;;;;;;;;;;;;;;7373888;19;1902;-69
2022/12/02 10:47:16;;;;;;;;;;;;;;;;;;7375775;19;1868;-69
2022/12/02 10:49:44;;;;;;;;;;;;;;;;;;7375093;19;1905;-70
2022/12/02 10:52:13;;;;;;;;;;;;;;;;;;7374449;19;1571;-70
2022/12/02 10:54:41;;;;;;;;;;;;;;;;;;7369724;19;1677;-70
2022/12/02 10:57:09;;;;;;;;;;;;;;;;;;7372297;19;1859;-69
2022/12/02 10:59:37;;;;;;;;;;;;;;;;;;7373235;19;1876;-68
2022/12/02 11:02:05;;;;;;;;;;;;;;;;;;7373945;19;1897;-68
2022/12/02 11:04:33;;;;;;;;;;;;;;;;;;7373080;19;1883;-68
2022/12/02 11:07:02;;;;;;;;;;;;;;;;;;7373196;19;1931;-68
2022/12/02 11:09:30;;;;;;;;;;;;;;;;;;7372677;19;2121;-68
2022/12/02 11:11:58;;;;;;;;;;;;;;;;;;7376361;19;1597;-68
2022/12/02 11:14:26;;;;;;;;;;;;;;;;;;7371584;19;1790;-67
2022/12/02 11:16:54;;;;;;;;;;;;;;;;;;7370400;19;884;-68
2022/12/02 11:19:22;;;;;;;;;;;;;;;;;;7369634;19;1846;-68
2022/12/02 11:21:51;;;;;;;;;;;;;;;;;;7372436;19;1916;-68
2022/12/02 11:24:19;;;;;;;;;;;;;;;;;;7372817;19;1502;-68
2022/12/02 11:26:47;;;;;;;;;;;;;;;;;;7371463;19;2152;-70
2022/12/02 11:29:15;;;;;;;;;;;;;;;;;;7373168;19;1712;-71
2022/12/02 11:31:43;;;;;;;;;;;;;;;;;;7369872;19;850;-71
2022/12/02 11:34:11;;;;;;;;;;;;;;;;;;7370937;19;1652;-68
2022/12/02 11:36:39;;;;;;;;;;;;;;;;;;7374120;19;1815;-67
2022/12/02 11:39:08;;;;;;;;;;;;;;;;;;7370599;19;1929;-69
2022/12/02 11:41:36;;;;;;;;;;;;;;;;;;7370349;19;1872;-70
2022/12/02 11:44:05;;;;;;;;;;;;;;;;;;7371801;19;1809;-68
2022/12/02 11:46:33;;;;;;;;;;;;;;;;;;7369786;19;858;-68
2022/12/02 11:49:01;;;;;;;;;;;;;;;;;;7369365;19;1849;-69
2022/12/02 11:51:29;;;;;;;;;;;;;;;;;;7370061;19;1825;-69
2022/12/02 11:53:57;;;;;;;;;;;;;;;;;;7369424;19;1825;-70
2022/12/02 11:56:26;;;;;;;;;;;;;;;;;;7371351;19;1850;-68
2022/12/02 11:58:54;;;;;;;;;;;;;;;;;;7368629;19;1901;-67
2022/12/02 12:01:22;;;;;;;;;;;;;;;;;;7372100;19;1837;-68
2022/12/02 12:03:50;;;;;;;;;;;;;;;;;;7372978;19;1819;-67
2022/12/02 12:06:18;;;;;;;;;;;;;;;;;;7367544;19;1895;-68
2022/12/02 12:08:47;;;;;;;;;;;;;;;;;;7371925;19;1775;-66
2022/12/02 12:11:15;;;;;;;;;;;;;;;;;;7371412;19;1834;-66
2022/12/02 12:13:43;;;;;;;;;;;;;;;;;;7370929;19;1842;-65
2022/12/02 12:16:11;;;;;;;;;;;;;;;;;;7365691;19;1271;-66
2022/12/02 12:18:39;;;;;;;;;;;;;;;;;;7369398;19;1845;-64
2022/12/02 12:21:08;;;;;;;;;;;;;;;;;;7372103;19;1961;-66
2022/12/02 12:23:36;;;;;;;;;;;;;;;;;;7372020;19;1851;-67
2022/12/02 12:26:04;;;;;;;;;;;;;;;;;;7370592;19;1864;-67
2022/12/02 12:28:32;;;;;;;;;;;;;;;;;;7368938;19;1923;-67
2022/12/02 12:31:00;;;;;;;;;;;;;;;;;;7370543;19;1840;-67
2022/12/02 12:33:28;;;;;;;;;;;;;;;;;;7369491;19;1868;-68
2022/12/02 12:35:57;;;;;;;;;;;;;;;;;;7367826;19;2155;-66
2022/12/02 12:38:25;;;;;;;;;;;;;;;;;;7369965;19;1873;-67
2022/12/02 12:40:54;;;;;;;;;;;;;;;;;;7371745;19;1835;-66
2022/12/02 12:43:22;;;;;;;;;;;;;;;;;;7368657;19;2132;-69
2022/12/02 12:45:50;;;;;;;;;;;;;;;;;;7366987;19;1910;-68
2022/12/02 12:48:18;;;;;;;;;;;;;;;;;;7368555;19;1743;-67
2022/12/02 12:50:46;;;;;;;;;;;;;;;;;;7369723;19;1744;-67
2022/12/02 12:53:15;;;;;;;;;;;;;;;;;;7372370;19;699;-68
2022/12/02 12:55:43;;;;;;;;;;;;;;;;;;7372454;19;1366;-68
2022/12/02 12:58:12;;;;;;;;;;;;;;;;;;7373764;19;1898;-67
2022/12/02 13:00:40;;;;;;;;;;;;;;;;;;7375728;19;851;-67
2022/12/02 13:03:08;;;;;;;;;;;;;;;;;;7374363;19;768;-68
2022/12/02 13:05:37;;;;;;;;;;;;;;;;;;7374814;19;1946;-68
2022/12/02 13:08:05;;;;;;;;;;;;;;;;;;7373524;19;854;-67
2022/12/02 13:10:33;;;;;;;;;;;;;;;;;;7374098;19;740;-67
2022/12/02 13:13:01;;;;;;;;;;;;;;;;;;7376075;19;1846;-66
2022/12/02 13:15:29;;;;;;;;;;;;;;;;;;7374383;19;1843;-70
2022/12/02 13:17:58;;;;;;;;;;;;;;;;;;7374356;19;1870;-69
2022/12/02 13:20:26;;;;;;;;;;;;;;;;;;7371926;19;1032;-69
2022/12/02 13:22:54;;;;;;;;;;;;;;;;;;7375094;19;843;-68
2022/12/02 13:25:23;;;;;;;;;;;;;;;;;;7376264;19;1951;-68
2022/12/02 13:27:51;;;;;;;;;;;;;;;;;;7373039;19;799;-68
2022/12/02 13:30:19;;;;;;;;;;;;;;;;;;7373249;19;1004;-68
2022/12/02 13:32:47;;;;;;;;;;;;;;;;;;7374095;19;862;-68
2022/12/02 13:35:16;;;;;;;;;;;;;;;;;;7373141;19;1265;-68
2022/12/02 13:37:44;;;;;;;;;;;;;;;;;;7373418;19;838;-68
2022/12/02 13:40:12;;;;;;;;;;;;;;;;;;7372435;19;1845;-68
2022/12/02 13:42:40;;;;;;;;;;;;;;;;;;7375341;19;759;-68
2022/12/02 13:45:08;;;;;;;;;;;;;;;;;;7372675;19;1283;-68
2022/12/02 13:47:36;;;;;;;;;;;;;;;;;;7376025;19;801;-69
2022/12/02 13:50:05;;;;;;;;;;;;;;;;;;7383038;19;1031;-68
2022/12/02 13:52:33;;;;;;;;;;;;;;;;;;7384405;19;1150;-66
2022/12/02 13:55:01;;;;;;;;;;;;;;;;;;7379056;19;1339;-67
2022/12/02 13:57:29;;;;;;;;;;;;;;;;;;7380131;19;890;-67
2022/12/02 13:59:58;;;;;;;;;;;;;;;;;;7376313;19;1826;-67
2022/12/02 14:02:26;;;;;;;;;;;;;;;;;;7373475;19;794;-67
2022/12/02 14:04:54;;;;;;;;;;;;;;;;;;7372911;19;1334;-67
2022/12/02 14:07:22;;;;;;;;;;;;;;;;;;7373279;19;796;-66
2022/12/02 14:09:51;;;;;;;;;;;;;;;;;;7371743;19;791;-67
2022/12/02 14:12:19;;;;;;;;;;;;;;;;;;7372073;19;868;-67
2022/12/02 14:14:47;;;;;;;;;;;;;;;;;;7372080;19;1287;-67
2022/12/02 14:17:15;;;;;;;;;;;;;;;;;;7373264;19;844;-67
2022/12/02 14:19:43;;;;;;;;;;;;;;;;;;7370358;19;1858;-67
2022/12/02 14:22:11;;;;;;;;;;;;;;;;;;7372312;19;812;-67
2022/12/02 14:24:39;;;;;;;;;;;;;;;;;;7371950;19;1271;-67
2022/12/02 14:27:08;;;;;;;;;;;;;;;;;;7372096;19;816;-68
2022/12/02 14:29:36;;;;;;;;;;;;;;;;;;7371357;19;807;-67
2022/12/02 14:32:04;;;;;;;;;;;;;;;;;;7372075;19;761;-68
2022/12/02 14:34:32;;;;;;;;;;;;;;;;;;7372349;19;1287;-68
2022/12/02 14:37:00;;;;;;;;;;;;;;;;;;7373667;19;846;-67
2022/12/02 14:39:29;;;;;;;;;;;;;;;;;;7370695;19;1841;-67
2022/12/02 14:41:57;;;;;;;;;;;;;;;;;;7372392;19;794;-68
2022/12/02 14:44:25;;;;;;;;;;;;;;;;;;7370621;19;1299;-68
2022/12/02 14:46:53;;;;;;;;;;;;;;;;;;7372889;19;1173;-67
2022/12/02 14:49:21;;;;;;;;;;;;;;;;;;7371935;19;823;-67
2022/12/02 14:51:49;;;;;;;;;;;;;;;;;;7371806;19;796;-67
2022/12/02 14:54:18;;;;;;;;;;;;;;;;;;7371592;19;1354;-67
2022/12/02 14:56:46;;;;;;;;;;;;;;;;;;7371862;19;839;-67
2022/12/02 14:59:14;;;;;;;;;;;;;;;;;;7369894;19;1846;-67
2022/12/02 15:01:42;;;;;;;;;;;;;;;;;;7372048;19;855;-67
2022/12/02 15:04:10;;;;;;;;;;;;;;;;;;7369707;19;1272;-68
2022/12/02 15:06:38;;;;;;;;;;;;;;;;;;7369227;19;807;-68
2022/12/02 15:09:07;;;;;;;;;;;;;;;;;;7370207;19;812;-68
2022/12/02 15:11:35;;;;;;;;;;;;;;;;;;7371125;19;818;-68
2022/12/02 15:14:03;;;;;;;;;;;;;;;;;;7368680;19;1251;-68
2022/12/02 15:16:31;;;;;;;;;;;;;;;;;;7370670;19;819;-68
2022/12/02 15:18:59;;;;;;;;;;;;;;;;;;7368993;19;1834;-68
2022/12/02 15:21:27;;;;;;;;;;;;;;;;;;7367442;19;795;-68
2022/12/02 15:23:56;;;;;;;;;;;;;;;;;;7371186;19;819;-68
2022/12/02 15:26:24;;;;;;;;;;;;;;;;;;7370775;19;828;-67
2022/12/02 15:28:52;;;;;;;;;;;;;;;;;;7369100;19;902;-66
2022/12/02 15:31:20;;;;;;;;;;;;;;;;;;7369656;19;876;-66
2022/12/02 15:33:48;;;;;;;;;;;;;;;;;;7370037;19;815;-67
2022/12/02 15:36:16;;;;;;;;;;;;;;;;;;7367664;19;1365;-67
2022/12/02 15:38:45;;;;;;;;;;;;;;;;;;7369100;19;1829;-67
2022/12/02 15:41:13;;;;;;;;;;;;;;;;;;7368506;19;853;-67
2022/12/02 15:43:41;;;;;;;;;;;;;;;;;;7371363;19;984;-66
2022/12/02 15:46:09;;;;;;;;;;;;;;;;;;7367915;19;1305;-66
2022/12/02 15:48:37;;;;;;;;;;;;;;;;;;7369565;19;862;-69
2022/12/02 15:51:06;;;;;;;;;;;;;;;;;;7369627;19;814;-67
2022/12/02 15:53:34;;;;;;;;;;;;;;;;;;7368685;19;820;-67
2022/12/02 15:56:02;;;;;;;;;;;;;;;;;;7366269;19;1255;-67
2022/12/02 15:58:30;;;;;;;;;;;;;;;;;;7370244;19;822;-67
2022/12/02 16:00:58;;;;;;;;;;;;;;;;;;7366479;19;1837;-68
2022/12/02 16:03:26;;;;;;;;;;;;;;;;;;7369783;19;824;-68
2022/12/02 16:05:55;;;;;;;;;;;;;;;;;;7365326;19;1393;-68
2022/12/02 16:08:23;;;;;;;;;;;;;;;;;;7370357;19;787;-67
2022/12/02 16:10:51;;;;;;;;;;;;;;;;;;7370857;19;820;-66
2022/12/02 16:13:19;;;;;;;;;;;;;;;;;;7372330;19;819;-67
2022/12/02 16:15:47;;;;;;;;;;;;;;;;;;7371444;19;1341;-66
2022/12/02 16:18:15;;;;;;;;;;;;;;;;;;7374189;19;791;-67
2022/12/02 16:20:43;;;;;;;;;;;;;;;;;;7366842;19;1837;-67
2022/12/02 16:23:12;;;;;;;;;;;;;;;;;;7368774;19;815;-66
2022/12/02 16:25:40;;;;;;;;;;;;;;;;;;7366589;19;1275;-66
2022/12/02 16:28:08;;;;;;;;;;;;;;;;;;7368354;19;841;-67
2022/12/02 16:30:36;;;;;;;;;;;;;;;;;;7368949;19;775;-66
2022/12/02 16:33:04;;;;;;;;;;;;;;;;;;7366052;19;840;-68
2022/12/02 16:35:32;;;;;;;;;;;;;;;;;;7366117;19;1357;-68
2022/12/02 16:38:01;;;;;;;;;;;;;;;;;;7365727;19;854;-66
2022/12/02 16:40:29;;;;;;;;;;;;;;;;;;7364549;19;1877;-66
2022/12/02 16:42:57;;;;;;;;;;;;;;;;;;7366817;19;803;-67
2022/12/02 16:45:25;;;;;;;;;;;;;;;;;;7367070;19;1279;-67
2022/12/02 16:47:53;;;;;;;;;;;;;;;;;;7368864;19;832;-67
2022/12/02 16:50:21;;;;;;;;;;;;;;;;;;7368876;19;812;-68
2022/12/02 16:52:49;;;;;;;;;;;;;;;;;;7368319;19;837;-67
2022/12/02 16:55:18;;;;;;;;;;;;;;;;;;7366886;19;1346;-68
2022/12/02 16:57:46;;;;;;;;;;;;;;;;;;7368010;19;725;-68
2022/12/02 17:00:14;;;;;;;;;;;;;;;;;;7367668;19;1833;-67
2022/12/02 17:02:42;;;;;;;;;;;;;;;;;;7374177;19;865;-68
2022/12/02 17:05:10;;;;;;;;;;;;;;;;;;7372459;19;1306;-68
2022/12/02 17:07:39;;;;;;;;;;;;;;;;;;7369368;19;823;-68
2022/12/02 17:10:07;;;;;;;;;;;;;;;;;;7369036;19;713;-67
2022/12/02 17:12:35;;;;;;;;;;;;;;;;;;7370766;19;921;-66
2022/12/02 17:15:04;;;;;;;;;;;;;;;;;;7369777;19;1202;-68
2022/12/02 17:17:32;;;;;;;;;;;;;;;;;;7369718;19;840;-68
2022/12/02 17:20:00;;;;;;;;;;;;;;;;;;7367254;19;1861;-67
2022/12/02 17:22:28;;;;;;;;;;;;;;;;;;7365886;19;1032;-67
2022/12/02 17:24:57;;;;;;;;;;;;;;;;;;7365307;19;1341;-68